createdAt,value
2022-10-03T00:01:01.367Z,7.68
2022-10-03T00:03:36.819Z,7.70
2022-10-03T00:06:10.992Z,7.67
2022-10-03T00:09:18.489Z,7.68
2022-10-03T00:11:56.799Z,7.66
2022-10-03T00:14:35.931Z,7.64
2022-10-03T00:17:10.385Z,7.63
2022-10-03T00:19:52.335Z,7.63
2022-10-03T00:22:21.751Z,7.60
2022-10-03T00:25:39.306Z,7.58
2022-10-03T00:28:13.664Z,7.56
2022-10-03T00:31:02.410Z,7.55
2022-10-03T00:33:41.106Z,7.54
2022-10-03T00:36:57.093Z,7.52
2022-10-03T00:39:29.453Z,7.50
2022-10-03T00:42:24.066Z,7.47
2022-10-03T00:45:12.114Z,7.43
2022-10-03T00:48:17.259Z,7.42
2022-10-03T00:51:26.646Z,7.40
2022-10-03T00:54:11.637Z,7.39
2022-10-03T00:57:02.553Z,7.39
2022-10-03T01:00:09.095Z,7.36
2022-10-03T01:02:46.629Z,7.32
2022-10-03T01:05:42.535Z,7.30
2022-10-03T01:08:30.298Z,7.28
2022-10-03T01:11:18.822Z,7.27
2022-10-03T01:14:12.674Z,7.27
2022-10-03T01:16:44.977Z,7.25
2022-10-03T01:19:11.973Z,7.23
2022-10-03T01:21:50.836Z,7.19
2022-10-03T01:24:42.182Z,7.16
2022-10-03T01:27:13.750Z,7.15
2022-10-03T01:30:13.985Z,7.15
2022-10-03T01:32:50.019Z,7.13
2022-10-03T01:35:31.630Z,7.12
2022-10-03T01:38:19.830Z,7.10
2022-10-03T01:41:03.242Z,7.12
2022-10-03T01:43:44.781Z,7.11
2022-10-03T01:46:23.340Z,7.10
2022-10-03T01:49:09.151Z,7.10
2022-10-03T01:52:01.284Z,7.07
2022-10-03T01:54:42.082Z,7.06
2022-10-03T01:57:45.438Z,7.04
2022-10-03T02:00:17.875Z,7.02
2022-10-03T02:03:03.116Z,7.04
2022-10-03T02:05:38.765Z,7.06
2022-10-03T02:08:17.943Z,7.07
2022-10-03T02:11:09.135Z,7.07
2022-10-03T02:13:37.085Z,7.07
2022-10-03T02:16:43.544Z,7.07
2022-10-03T02:19:26.776Z,7.04
2022-10-03T02:21:56.503Z,7.03
2022-10-03T02:24:51.769Z,7.03
2022-10-03T02:27:54.039Z,7.00
2022-10-03T02:30:43.108Z,7.00
2022-10-03T02:33:37.196Z,6.98
2022-10-03T02:36:41.543Z,6.96
2022-10-03T02:39:32.742Z,6.94
2022-10-03T02:42:17.686Z,6.92
2022-10-03T02:45:10.386Z,6.91
2022-10-03T02:48:30.600Z,6.89
2022-10-03T02:51:40.394Z,6.87
2022-10-03T02:54:45.115Z,6.85
2022-10-03T02:57:45.441Z,6.83
2022-10-03T03:00:21.165Z,6.84
2022-10-03T03:03:02.956Z,6.85
2022-10-03T03:06:06.636Z,6.80
2022-10-03T03:08:44.624Z,6.77
2022-10-03T03:11:47.704Z,6.75
2022-10-03T03:14:23.153Z,6.73
2022-10-03T03:17:14.064Z,6.72
2022-10-03T03:20:18.146Z,6.70
2022-10-03T03:22:56.954Z,6.70
2022-10-03T03:25:43.024Z,6.66
2022-10-03T03:28:29.178Z,6.62
2022-10-03T03:31:10.379Z,6.60
2022-10-03T03:33:43.758Z,6.58
2022-10-03T03:36:29.005Z,6.56
2022-10-03T03:39:10.772Z,6.55
2022-10-03T03:42:07.905Z,6.53
2022-10-03T03:45:10.028Z,6.48
2022-10-03T03:47:54.621Z,6.48
2022-10-03T03:50:24.245Z,6.46
2022-10-03T03:53:19.736Z,6.45
2022-10-03T03:56:07.360Z,6.43
2022-10-03T03:58:45.277Z,6.40
2022-10-03T04:01:37.137Z,6.39
2022-10-03T04:04:16.043Z,6.38
2022-10-03T04:06:57.878Z,6.39
2022-10-03T04:09:54.197Z,6.37
2022-10-03T04:12:21.939Z,6.33
2022-10-03T04:14:50.263Z,6.30
2022-10-03T04:18:08.893Z,6.28
2022-10-03T04:20:56.021Z,6.27
2022-10-03T04:23:23.184Z,6.26
2022-10-03T04:26:32.550Z,6.23
2022-10-03T04:29:22.598Z,6.22
2022-10-03T04:32:01.543Z,6.19
2022-10-03T04:34:50.200Z,6.16
2022-10-03T04:37:32.562Z,6.14
2022-10-03T04:40:11.829Z,6.14
2022-10-03T04:43:15.974Z,6.15
2022-10-03T04:45:45.903Z,6.13
2022-10-03T04:48:13.084Z,6.12
2022-10-03T04:50:57.723Z,6.11
2022-10-03T04:53:41.789Z,6.12
2022-10-03T04:56:12.989Z,6.10
2022-10-03T04:58:51.190Z,6.04
2022-10-03T05:01:55.170Z,6.03
2022-10-03T05:04:33.465Z,6.00
2022-10-03T05:07:21.735Z,5.99
2022-10-03T05:09:57.001Z,5.97
2022-10-03T05:12:44.620Z,5.96
2022-10-03T05:15:11.754Z,5.94
2022-10-03T05:18:25.942Z,5.93
2022-10-03T05:21:14.325Z,5.90
2022-10-03T05:24:05.450Z,5.94
2022-10-03T05:26:44.938Z,5.94
2022-10-03T05:29:34.870Z,5.92
2022-10-03T05:32:07.355Z,5.90
2022-10-03T05:34:55.299Z,5.88
2022-10-03T05:37:40.047Z,5.87
2022-10-03T05:40:21.291Z,5.87
2022-10-03T05:42:53.912Z,5.87
2022-10-03T05:45:30.621Z,5.86
2022-10-03T05:48:15.493Z,5.85
2022-10-03T05:51:12.113Z,5.85
2022-10-03T05:54:09.974Z,5.84
2022-10-03T05:56:45.977Z,5.84
2022-10-03T05:59:49.684Z,5.84
2022-10-03T06:02:33.053Z,5.87
2022-10-03T06:05:24.570Z,5.86
2022-10-03T06:08:33.390Z,5.87
2022-10-03T06:11:42.623Z,5.88
2022-10-03T06:14:24.016Z,5.90
2022-10-03T06:17:07.041Z,5.93
2022-10-03T06:19:36.728Z,5.97
2022-10-03T06:22:15.545Z,6.02
2022-10-03T06:25:10.302Z,6.07
2022-10-03T06:28:14.435Z,6.12
2022-10-03T06:30:51.749Z,6.17
2022-10-03T06:33:55.159Z,6.24
2022-10-03T06:36:37.165Z,6.33
2022-10-03T06:39:25.503Z,6.44
2022-10-03T06:42:29.398Z,6.53
2022-10-03T06:45:25.616Z,6.63
2022-10-03T06:48:28.952Z,6.75
2022-10-03T06:51:25.091Z,6.90
2022-10-03T06:54:32.374Z,7.09
2022-10-03T06:57:33.122Z,7.30
2022-10-03T07:00:09.288Z,7.47
2022-10-03T07:02:54.119Z,7.65
2022-10-03T07:05:48.789Z,7.87
2022-10-03T07:08:26.950Z,8.07
2022-10-03T07:11:05.356Z,8.25
2022-10-03T07:13:50.939Z,8.42
2022-10-03T07:16:36.001Z,8.59
2022-10-03T07:19:38.520Z,8.74
2022-10-03T07:22:24.629Z,8.86
2022-10-03T07:25:22.006Z,9.01
2022-10-03T07:28:16.683Z,9.18
2022-10-03T07:31:04.208Z,9.35
2022-10-03T07:33:46.134Z,9.51
2022-10-03T07:37:00.988Z,9.67
2022-10-03T07:39:58.102Z,9.90
2022-10-03T07:43:00.334Z,10.11
2022-10-03T07:45:34.677Z,10.38
2022-10-03T07:48:23.285Z,10.66
2022-10-03T07:51:12.977Z,10.97
2022-10-03T07:54:10.339Z,11.35
2022-10-03T07:56:56.366Z,11.71
2022-10-03T07:59:52.496Z,11.94
2022-10-03T08:02:56.045Z,11.88
2022-10-03T08:05:35.023Z,11.91
2022-10-03T08:08:40.027Z,11.98
2022-10-03T08:11:42.779Z,11.97
2022-10-03T08:14:12.778Z,11.99
2022-10-03T08:17:15.469Z,12.06
2022-10-03T08:19:57.463Z,12.15
2022-10-03T08:23:00.028Z,12.29
2022-10-03T08:25:46.874Z,12.41
2022-10-03T08:28:48.154Z,12.51
2022-10-03T08:31:54.026Z,12.64
2022-10-03T08:34:26.402Z,12.79
2022-10-03T08:37:05.049Z,12.87
2022-10-03T08:39:41.124Z,13.02
2022-10-03T08:42:35.424Z,13.13
2022-10-03T08:45:08.171Z,13.21
2022-10-03T08:48:13.898Z,13.32
2022-10-03T08:51:05.418Z,13.42
2022-10-03T08:54:14.048Z,13.47
2022-10-03T08:57:16.859Z,13.54
2022-10-03T09:00:08.609Z,13.63
2022-10-03T09:03:36.586Z,13.73
2022-10-03T09:06:24.879Z,13.87
2022-10-03T09:09:18.896Z,13.90
2022-10-03T09:12:19.810Z,13.99
2022-10-03T09:15:00.621Z,14.15
2022-10-03T09:18:27.395Z,14.33
2022-10-03T09:21:07.192Z,14.46
2022-10-03T09:23:52.722Z,14.54
2022-10-03T09:26:43.111Z,14.57
2022-10-03T09:29:53.392Z,14.56
2022-10-03T09:32:44.284Z,14.63
2022-10-03T09:35:38.886Z,14.71
2022-10-03T09:38:36.846Z,14.80
2022-10-03T09:41:49.002Z,14.84
2022-10-03T09:44:41.592Z,14.93
2022-10-03T09:47:33.231Z,15.05
2022-10-03T09:50:37.500Z,15.18
2022-10-03T09:53:24.630Z,15.28
2022-10-03T09:56:11.951Z,15.32
2022-10-03T09:59:01.362Z,15.47
2022-10-03T10:01:34.805Z,15.57
2022-10-03T10:04:32.640Z,15.64
2022-10-03T10:07:52.932Z,15.66
2022-10-03T10:11:07.589Z,15.88
2022-10-03T10:14:10.715Z,15.97
2022-10-03T10:16:59.445Z,16.07
2022-10-03T10:20:05.208Z,16.22
2022-10-03T10:22:57.365Z,16.28
2022-10-03T10:25:42.771Z,16.41
2022-10-03T10:28:33.833Z,16.61
2022-10-03T10:31:35.074Z,16.80
2022-10-03T10:34:22.398Z,16.82
2022-10-03T10:37:27.079Z,16.82
2022-10-03T10:40:17.219Z,16.85
2022-10-03T10:43:23.844Z,16.99
2022-10-03T10:46:33.559Z,17.21
2022-10-03T10:49:38.729Z,17.49
2022-10-03T10:52:12.798Z,17.53
2022-10-03T10:55:13.585Z,17.35
2022-10-03T10:58:12.493Z,17.40
2022-10-03T11:00:55.269Z,17.50
2022-10-03T11:03:41.144Z,17.60
2022-10-03T11:06:29.192Z,17.64
2022-10-03T11:09:34.801Z,17.56
2022-10-03T11:12:33.124Z,17.47
2022-10-03T11:15:36.737Z,17.44
2022-10-03T11:18:43.099Z,17.46
2022-10-03T11:21:24.791Z,17.53
2022-10-03T11:24:44.737Z,17.67
2022-10-03T11:27:17.559Z,17.68
2022-10-03T11:30:15.191Z,17.78
2022-10-03T11:33:12.944Z,17.83
2022-10-03T11:35:54.908Z,17.98
2022-10-03T11:38:32.956Z,18.13
2022-10-03T11:41:08.693Z,18.07
2022-10-03T11:43:56.374Z,18.07
2022-10-03T11:46:52.373Z,17.90
2022-10-03T11:50:01.137Z,17.88
2022-10-03T11:52:32.290Z,17.87
2022-10-03T11:55:09.466Z,18.07
2022-10-03T11:57:39.893Z,18.21
2022-10-03T12:00:20.608Z,18.33
2022-10-03T12:03:02.663Z,18.11
2022-10-03T12:05:44.709Z,18.03
2022-10-03T12:08:45.255Z,18.03
2022-10-03T12:11:27.776Z,18.04
2022-10-03T12:14:00.338Z,18.06
2022-10-03T12:16:54.346Z,18.16
2022-10-03T12:19:52.240Z,18.15
2022-10-03T12:22:42.474Z,18.26
2022-10-03T12:25:31.966Z,18.43
2022-10-03T12:28:25.056Z,18.41
2022-10-03T12:31:01.091Z,18.22
2022-10-03T12:33:49.628Z,18.10
2022-10-03T12:36:24.730Z,17.98
2022-10-03T12:39:23.668Z,17.98
2022-10-03T12:42:10.075Z,17.94
2022-10-03T12:45:00.083Z,18.08
2022-10-03T12:47:54.788Z,18.00
2022-10-03T12:50:38.197Z,17.89
2022-10-03T12:53:17.760Z,17.84
2022-10-03T12:56:03.003Z,17.79
2022-10-03T12:58:57.813Z,17.78
2022-10-03T13:01:52.188Z,17.73
2022-10-03T13:04:56.007Z,17.71
2022-10-03T13:07:30.585Z,17.81
2022-10-03T13:10:16.736Z,18.22
2022-10-03T13:12:53.309Z,18.54
2022-10-03T13:15:39.202Z,18.48
2022-10-03T13:18:27.121Z,18.42
2022-10-03T13:21:26.883Z,18.36
2022-10-03T13:24:02.689Z,18.19
2022-10-03T13:26:44.588Z,18.12
2022-10-03T13:29:23.861Z,18.11
2022-10-03T13:31:55.834Z,18.07
2022-10-03T13:34:31.644Z,18.06
2022-10-03T13:37:17.161Z,18.01
2022-10-03T13:39:57.590Z,18.13
2022-10-03T13:42:53.705Z,18.21
2022-10-03T13:45:27.456Z,18.23
2022-10-03T13:48:00.558Z,18.21
2022-10-03T13:50:34.261Z,18.14
2022-10-03T13:53:09.655Z,18.03
2022-10-03T13:55:53.965Z,17.97
2022-10-03T13:58:54.040Z,17.87
2022-10-03T14:01:41.806Z,17.82
2022-10-03T14:04:23.534Z,17.76
2022-10-03T14:07:25.963Z,17.63
2022-10-03T14:09:58.002Z,17.60
2022-10-03T14:12:55.744Z,17.70
2022-10-03T14:15:47.650Z,17.76
2022-10-03T14:18:20.699Z,17.75
2022-10-03T14:20:53.369Z,17.73
2022-10-03T14:23:35.892Z,17.64
2022-10-03T14:26:25.761Z,17.57
2022-10-03T14:28:55.672Z,17.46
2022-10-03T14:31:40.732Z,17.36
2022-10-03T14:34:46.896Z,17.28
2022-10-03T14:37:40.253Z,17.24
2022-10-03T14:40:17.877Z,17.20
2022-10-03T14:43:16.556Z,17.12
2022-10-03T14:45:50.732Z,17.03
2022-10-03T14:48:27.560Z,17.00
2022-10-03T14:51:06.846Z,16.90
2022-10-03T14:53:33.903Z,16.84
2022-10-03T14:56:06.622Z,16.77
2022-10-03T14:58:45.305Z,16.77
2022-10-03T15:01:22.033Z,16.71
2022-10-03T15:04:02.025Z,16.71
2022-10-03T15:06:48.331Z,16.74
2022-10-03T15:09:49.324Z,16.72
2022-10-03T15:12:24.168Z,16.75
2022-10-03T15:15:09.338Z,16.75
2022-10-03T15:17:55.030Z,16.76
2022-10-03T15:20:31.293Z,16.76
2022-10-03T15:23:03.295Z,16.74
2022-10-03T15:25:39.770Z,16.75
2022-10-03T15:28:12.732Z,16.67
2022-10-03T15:30:41.760Z,16.47
2022-10-03T15:33:21.767Z,16.32
2022-10-03T15:35:55.655Z,16.24
2022-10-03T15:38:27.431Z,16.12
2022-10-03T15:41:19.959Z,16.02
2022-10-03T15:44:02.785Z,15.92
2022-10-03T15:46:53.248Z,15.91
2022-10-03T15:49:30.978Z,15.89
2022-10-03T15:52:07.305Z,15.85
2022-10-03T15:54:39.218Z,15.79
2022-10-03T15:57:08.562Z,15.78
2022-10-03T15:59:37.739Z,15.74
2022-10-03T16:02:37.800Z,15.68
2022-10-03T16:05:14.670Z,15.63
2022-10-03T16:08:10.756Z,15.60
2022-10-03T16:10:46.589Z,15.53
2022-10-03T16:13:42.728Z,15.51
2022-10-03T16:16:26.582Z,15.46
2022-10-03T16:18:55.676Z,15.44
2022-10-03T16:21:44.794Z,15.42
2022-10-03T16:24:27.643Z,15.35
2022-10-03T16:27:14.672Z,15.27
2022-10-03T16:29:59.178Z,15.20
2022-10-03T16:32:29.965Z,15.09
2022-10-03T16:35:04.398Z,14.99
2022-10-03T16:37:32.821Z,14.90
2022-10-03T16:40:03.118Z,14.83
2022-10-03T16:42:41.855Z,14.72
2022-10-03T16:45:21.102Z,14.61
2022-10-03T16:48:11.602Z,14.51
2022-10-03T16:50:52.826Z,14.37
2022-10-03T16:53:22.622Z,14.29
2022-10-03T16:55:57.851Z,14.19
2022-10-03T16:58:30.812Z,14.08
2022-10-03T17:01:27.027Z,13.97
2022-10-03T17:04:19.769Z,13.86
2022-10-03T17:06:50.391Z,13.78
2022-10-03T17:09:26.003Z,13.71
2022-10-03T17:11:57.699Z,13.62
2022-10-03T17:14:28.616Z,13.53
2022-10-03T17:17:03.661Z,13.44
2022-10-03T17:19:42.754Z,13.36
2022-10-03T17:22:20.191Z,13.32
2022-10-03T17:24:59.834Z,13.27
2022-10-03T17:27:29.758Z,13.22
2022-10-03T17:30:03.579Z,13.18
2022-10-03T17:32:37.994Z,13.13
2022-10-03T17:35:31.663Z,13.12
2022-10-03T17:38:49.431Z,13.06
2022-10-03T17:41:24.164Z,12.99
2022-10-03T17:44:28.176Z,12.95
2022-10-03T17:47:12.731Z,12.88
2022-10-03T17:49:52.957Z,12.83
2022-10-03T17:52:23.731Z,12.77
2022-10-03T17:55:02.311Z,12.71
2022-10-03T17:57:37.025Z,12.66
2022-10-03T18:00:09.936Z,12.59
2022-10-03T18:03:03.134Z,12.53
2022-10-03T18:05:38.489Z,12.46
2022-10-03T18:08:13.302Z,12.41
2022-10-03T18:10:49.464Z,12.34
2022-10-03T18:13:27.691Z,12.29
2022-10-03T18:16:16.112Z,12.24
2022-10-03T18:19:09.541Z,12.18
2022-10-03T18:22:02.684Z,12.13
2022-10-03T18:25:39.192Z,12.08
2022-10-03T18:28:24.541Z,12.07
2022-10-03T18:31:24.975Z,12.03
2022-10-03T18:34:00.245Z,11.98
2022-10-03T18:36:31.679Z,11.94
2022-10-03T18:39:08.143Z,11.90
2022-10-03T18:41:35.206Z,11.85
2022-10-03T18:44:02.697Z,11.81
2022-10-03T18:46:45.376Z,11.77
2022-10-03T18:49:33.345Z,11.72
2022-10-03T18:52:11.996Z,11.68
2022-10-03T18:54:38.989Z,11.67
2022-10-03T18:57:11.097Z,11.64
2022-10-03T18:59:56.308Z,11.60
2022-10-03T19:02:29.526Z,11.60
2022-10-03T19:05:07.213Z,11.59
2022-10-03T19:07:43.545Z,11.57
2022-10-03T19:10:47.596Z,11.55
2022-10-03T19:13:38.867Z,11.53
2022-10-03T19:16:14.452Z,11.52
2022-10-03T19:18:45.255Z,11.54
2022-10-03T19:21:21.074Z,11.52
2022-10-03T19:24:13.516Z,11.53
2022-10-03T19:26:47.401Z,11.52
2022-10-03T19:29:21.882Z,11.50
2022-10-03T19:31:51.510Z,11.50
2022-10-03T19:34:32.305Z,11.50
2022-10-03T19:37:00.950Z,11.50
2022-10-03T19:39:32.760Z,11.50
2022-10-03T19:42:28.844Z,11.49
2022-10-03T19:44:57.935Z,11.49
2022-10-03T19:47:38.292Z,11.50
2022-10-03T19:50:19.304Z,11.50
2022-10-03T19:52:47.029Z,11.48
2022-10-03T19:55:15.239Z,11.49
2022-10-03T19:57:43.845Z,11.45
2022-10-03T20:00:17.497Z,11.42
2022-10-03T20:02:48.186Z,11.41
2022-10-03T20:05:41.824Z,11.43
2022-10-03T20:08:23.831Z,11.42
2022-10-03T20:11:13.433Z,11.42
2022-10-03T20:13:46.351Z,11.40
2022-10-03T20:16:16.798Z,11.38
2022-10-03T20:18:48.247Z,11.39
2022-10-03T20:21:20.718Z,11.39
2022-10-03T20:23:48.718Z,11.39
2022-10-03T20:27:02.608Z,11.38
2022-10-03T20:29:46.977Z,11.41
2022-10-03T20:32:17.941Z,11.39
2022-10-03T20:34:53.121Z,11.37
2022-10-03T20:37:30.057Z,11.34
2022-10-03T20:40:07.903Z,11.33
2022-10-03T20:42:37.708Z,11.29
2022-10-03T20:45:15.821Z,11.27
2022-10-03T20:48:04.024Z,11.25
2022-10-03T20:50:35.832Z,11.20
2022-10-03T20:53:11.433Z,11.17
2022-10-03T20:55:48.361Z,11.13
2022-10-03T20:58:35.263Z,11.12
2022-10-03T21:01:15.666Z,11.09
2022-10-03T21:04:14.454Z,11.08
2022-10-03T21:06:47.259Z,11.09
2022-10-03T21:09:34.727Z,11.05
2022-10-03T21:12:03.571Z,11.03
2022-10-03T21:14:33.957Z,11.00
2022-10-03T21:17:02.661Z,10.98
2022-10-03T21:19:32.450Z,10.97
2022-10-03T21:22:04.005Z,10.96
2022-10-03T21:24:38.282Z,10.90
2022-10-03T21:27:24.610Z,10.89
2022-10-03T21:30:13.067Z,10.88
2022-10-03T21:32:56.965Z,10.86
2022-10-03T21:35:31.234Z,10.83
2022-10-03T21:38:10.835Z,10.82
2022-10-03T21:41:19.929Z,10.78
2022-10-03T21:43:52.798Z,10.75
2022-10-03T21:46:38.006Z,10.73
2022-10-03T21:49:49.109Z,10.73
2022-10-03T21:52:31.028Z,10.75
2022-10-03T21:55:26.597Z,10.74
2022-10-03T21:58:19.404Z,10.75
2022-10-03T22:00:59.146Z,10.73
2022-10-03T22:03:36.044Z,10.74
2022-10-03T22:06:25.724Z,10.71
2022-10-03T22:08:53.851Z,10.71
2022-10-03T22:11:40.788Z,10.73
2022-10-03T22:14:13.539Z,10.72
2022-10-03T22:16:55.079Z,10.74
2022-10-03T22:19:34.328Z,10.75
2022-10-03T22:22:32.092Z,10.76
2022-10-03T22:25:01.382Z,10.78
2022-10-03T22:28:06.377Z,10.77
2022-10-03T22:30:37.834Z,10.76
2022-10-03T22:33:40.227Z,10.76
2022-10-03T22:36:10.853Z,10.73
2022-10-03T22:38:38.181Z,10.74
2022-10-03T22:41:10.614Z,10.74
2022-10-03T22:43:38.737Z,10.73
2022-10-03T22:46:08.142Z,10.74
2022-10-03T22:48:40.559Z,10.75
2022-10-03T22:51:12.943Z,10.77
2022-10-03T22:53:46.230Z,10.79
2022-10-03T22:56:31.328Z,10.83
2022-10-03T22:59:00.648Z,10.85
2022-10-03T23:01:28.274Z,10.85
2022-10-03T23:03:55.913Z,10.85
2022-10-03T23:07:03.394Z,10.89
2022-10-03T23:09:40.407Z,10.89
2022-10-03T23:12:11.084Z,10.90
2022-10-03T23:14:42.269Z,10.89
2022-10-03T23:17:51.315Z,10.89
2022-10-03T23:20:51.061Z,10.91
2022-10-03T23:23:33.447Z,10.92
2022-10-03T23:26:10.130Z,10.90
2022-10-03T23:29:07.769Z,10.89
2022-10-03T23:32:09.401Z,10.87
2022-10-03T23:34:36.266Z,10.85
2022-10-03T23:37:13.339Z,10.86
2022-10-03T23:40:04.749Z,10.86
2022-10-03T23:42:31.434Z,10.87
2022-10-03T23:45:19.588Z,10.88
2022-10-03T23:48:10.742Z,10.88
2022-10-03T23:50:44.315Z,10.90
2022-10-03T23:53:32.342Z,10.90
2022-10-03T23:56:04.708Z,10.88
2022-10-03T23:58:37.839Z,10.86
